Atlantic City, Wyoming
Current Conditions -  °F | °C
As of 7:15 AM on Monday 26 Jan 2015 (Local Time) from KFWZ Reporting Station
Clear Clear  
Wind Chill:   Ceiling: Unl
Heat Index:   Visibility: 10mi
Dew Point: -11°   Wind: 6mph
Humidity: 24%   Direction: 250°WSW
Pressure: 30.34"   Gusts: NA
Location:  42.6143°N, 108.586°W
Report Text: KFWZ 261415Z AUTO 25005KT 10SM CLR 09/M11 A3034 RMK AO2
Loading
Personal Weather Stations






























Interactive Weather Map New forecast layout! Learn more

10-Day Weather Forecast

Advertisements
Track Severe Weather on mobile